Time;durP1;ratioP1;P1;durP2;ratioP2;P2;SDS_P1;SDS_P2;PMS_P1;PMS_P2;Temp;Humidity;BMP_temperature;BMP_pressure;BME280_temperature;BME280_humidity;BME280_pressure;Samples;Min_cycle;Max_cycle;Signal;HPM_P1;HPM_P2
2021/09/15 00:01:32;;;;;;;19.65;12.73;;;;;;;;;;4993193;28;20085;-74
2021/09/15 00:03:58;;;;;;;23.90;13.05;;;;;;;;;;4976098;28;20038;-76
2021/09/15 00:06:23;;;;;;;22.42;12.43;;;;;;;;;;4975854;28;20034;-76
2021/09/15 00:08:48;;;;;;;20.92;12.18;;;;;;;;;;4994031;28;20118;-75
2021/09/15 00:11:17;;;;;;;23.13;12.25;;;;;;;;;;4994119;28;20459;-76
2021/09/15 00:13:43;;;;;;;17.90;12.45;;;;;;;;;;4994087;28;20033;-76
2021/09/15 00:16:09;;;;;;;23.27;13.52;;;;;;;;;;4993497;28;20487;-76
2021/09/15 00:18:34;;;;;;;19.88;12.85;;;;;;;;;;4976533;28;20026;-77
2021/09/15 00:21:00;;;;;;;23.80;13.15;;;;;;;;;;4993628;28;20034;-76
2021/09/15 00:23:25;;;;;;;18.02;12.30;;;;;;;;;;4993015;28;20035;-75
2021/09/15 00:25:51;;;;;;;23.50;12.57;;;;;;;;;;4975911;28;20109;-76
2021/09/15 00:28:16;;;;;;;17.48;12.68;;;;;;;;;;4975788;28;20122;-77
2021/09/15 00:30:42;;;;;;;21.55;13.48;;;;;;;;;;4975344;28;20054;-74
2021/09/15 00:33:07;;;;;;;18.75;12.55;;;;;;;;;;4975192;28;20145;-76
2021/09/15 00:35:33;;;;;;;23.30;12.60;;;;;;;;;;4975486;28;20113;-76
2021/09/15 00:37:58;;;;;;;19.98;11.88;;;;;;;;;;4992691;28;20031;-76
2021/09/15 00:40:24;;;;;;;17.23;12.57;;;;;;;;;;4992569;28;20368;-76
2021/09/15 00:42:49;;;;;;;19.25;13.50;;;;;;;;;;4993099;28;20057;-76
2021/09/15 00:45:15;;;;;;;17.70;12.05;;;;;;;;;;4991072;28;20042;-76
2021/09/15 00:47:40;;;;;;;19.55;12.48;;;;;;;;;;4991252;28;20023;-76
2021/09/15 00:50:07;;;;;;;19.20;12.63;;;;;;;;;;4975517;28;20037;-76
2021/09/15 00:52:32;;;;;;;18.38;11.20;;;;;;;;;;4975044;28;20026;-78
2021/09/15 00:54:58;;;;;;;20.35;11.30;;;;;;;;;;4995033;28;20041;-76
2021/09/15 00:57:24;;;;;;;18.35;12.38;;;;;;;;;;4992861;28;20049;-77
2021/09/15 00:59:49;;;;;;;18.85;12.88;;;;;;;;;;4992796;28;20033;-77
2021/09/15 01:02:15;;;;;;;18.80;12.27;;;;;;;;;;4975120;28;20061;-75
2021/09/15 01:04:40;;;;;;;18.58;12.43;;;;;;;;;;4992265;28;20105;-76
2021/09/15 01:07:06;;;;;;;23.05;12.50;;;;;;;;;;4992249;28;20026;-77
2021/09/15 01:09:34;;;;;;;18.73;12.77;;;;;;;;;;4992098;28;20416;-75
2021/09/15 01:12:00;;;;;;;24.08;13.18;;;;;;;;;;4991658;28;20050;-76
2021/09/15 01:14:26;;;;;;;22.60;12.77;;;;;;;;;;4974694;28;20068;-77
2021/09/15 01:16:54;;;;;;;19.80;12.80;;;;;;;;;;4974603;28;20081;-76
2021/09/15 01:19:21;;;;;;;18.25;12.07;;;;;;;;;;4974630;28;20030;-77
2021/09/15 01:21:48;;;;;;;17.67;11.52;;;;;;;;;;4992180;28;20029;-76
2021/09/15 01:24:13;;;;;;;21.02;12.73;;;;;;;;;;4957895;28;20057;-76
2021/09/15 01:26:39;;;;;;;22.35;13.00;;;;;;;;;;4992485;28;20064;-77
2021/09/15 01:29:04;;;;;;;21.38;12.05;;;;;;;;;;4993057;28;20066;-77
2021/09/15 01:31:30;;;;;;;17.15;12.00;;;;;;;;;;4992571;28;20050;-76
2021/09/15 01:33:56;;;;;;;20.38;12.18;;;;;;;;;;4991789;28;20044;-76
2021/09/15 01:36:21;;;;;;;18.52;12.93;;;;;;;;;;4991878;28;20086;-73
2021/09/15 01:38:48;;;;;;;18.42;12.13;;;;;;;;;;4991983;28;20467;-73
2021/09/15 01:41:13;;;;;;;21.45;12.07;;;;;;;;;;4974345;28;20537;-73
2021/09/15 01:43:48;;;;;;;19.90;12.50;;;;;;;;;;4992028;28;20034;-73
2021/09/15 01:46:14;;;;;;;19.00;12.45;;;;;;;;;;4991582;28;20607;-74
2021/09/15 01:48:39;;;;;;;33.95;12.20;;;;;;;;;;4990650;28;20117;-73
2021/09/15 01:51:04;;;;;;;24.27;13.15;;;;;;;;;;4991774;28;20030;-74
2021/09/15 01:53:30;;;;;;;22.17;11.57;;;;;;;;;;4973468;28;20045;-70
2021/09/15 01:55:57;;;;;;;18.08;12.20;;;;;;;;;;4991025;28;20058;-72
2021/09/15 01:58:22;;;;;;;21.45;12.80;;;;;;;;;;4991041;28;20034;-72
2021/09/15 02:00:48;;;;;;;21.23;12.40;;;;;;;;;;4989801;28;20479;-71
2021/09/15 02:03:13;;;;;;;21.52;12.50;;;;;;;;;;4990986;28;20038;-72
2021/09/15 02:05:39;;;;;;;17.38;13.02;;;;;;;;;;4991216;28;20398;-72
2021/09/15 02:08:04;;;;;;;20.27;12.63;;;;;;;;;;4991099;28;20038;-72
2021/09/15 02:10:30;;;;;;;22.63;13.00;;;;;;;;;;4973216;28;20061;-71
2021/09/15 02:12:55;;;;;;;19.92;13.30;;;;;;;;;;4990901;28;20414;-72
2021/09/15 02:15:21;;;;;;;18.75;12.63;;;;;;;;;;4990722;28;20037;-71
2021/09/15 02:17:46;;;;;;;19.25;13.30;;;;;;;;;;4973136;28;20177;-70
2021/09/15 02:20:12;;;;;;;21.70;12.75;;;;;;;;;;4990522;28;20483;-72
2021/09/15 02:22:39;;;;;;;20.75;13.25;;;;;;;;;;4990523;28;20022;-72
2021/09/15 02:25:06;;;;;;;24.83;13.93;;;;;;;;;;4990763;28;20470;-71
2021/09/15 02:27:31;;;;;;;17.30;12.38;;;;;;;;;;4990742;28;20033;-72
2021/09/15 02:29:57;;;;;;;19.92;12.40;;;;;;;;;;4990577;28;20058;-73
2021/09/15 02:32:22;;;;;;;16.88;12.50;;;;;;;;;;4990634;28;20031;-72
2021/09/15 02:34:48;;;;;;;23.10;12.68;;;;;;;;;;4990611;28;20035;-72
2021/09/15 02:37:14;;;;;;;27.00;13.32;;;;;;;;;;4990325;28;20121;-72
2021/09/15 02:39:40;;;;;;;20.27;12.48;;;;;;;;;;4990415;28;20034;-72
2021/09/15 02:42:06;;;;;;;21.40;14.55;;;;;;;;;;4990554;28;20041;-71
2021/09/15 02:44:31;;;;;;;19.10;13.30;;;;;;;;;;4972546;28;20399;-72
2021/09/15 02:46:56;;;;;;;21.63;13.23;;;;;;;;;;4990256;28;20390;-72
2021/09/15 02:49:27;;;;;;;28.35;14.32;;;;;;;;;;4990087;28;20026;-72
2021/09/15 02:51:55;;;;;;;27.73;13.55;;;;;;;;;;4990396;28;20493;-72
2021/09/15 02:54:20;;;;;;;19.90;13.32;;;;;;;;;;4990134;28;20034;-72
2021/09/15 02:56:46;;;;;;;19.40;13.45;;;;;;;;;;4972868;28;20368;-72
2021/09/15 02:59:12;;;;;;;21.00;13.98;;;;;;;;;;4990328;28;20104;-72
2021/09/15 03:01:37;;;;;;;20.70;13.73;;;;;;;;;;4990080;28;20030;-72
2021/09/15 03:04:03;;;;;;;24.30;13.77;;;;;;;;;;4990452;28;20056;-71
2021/09/15 03:06:29;;;;;;;22.13;13.98;;;;;;;;;;4990004;28;20493;-72
2021/09/15 03:08:55;;;;;;;20.17;13.05;;;;;;;;;;4990207;28;20038;-72
2021/09/15 03:11:20;;;;;;;22.20;14.45;;;;;;;;;;4990007;28;20030;-72
2021/09/15 03:13:46;;;;;;;18.75;12.43;;;;;;;;;;4990224;28;20057;-72
2021/09/15 03:16:13;;;;;;;21.30;13.23;;;;;;;;;;4990124;28;20411;-72
2021/09/15 03:18:38;;;;;;;21.63;13.45;;;;;;;;;;4989832;28;20038;-72
2021/09/15 03:21:04;;;;;;;19.75;12.45;;;;;;;;;;4972734;28;20540;-71
2021/09/15 03:23:30;;;;;;;20.80;12.80;;;;;;;;;;4990442;28;20037;-72
2021/09/15 03:25:55;;;;;;;24.17;13.38;;;;;;;;;;4991169;28;20026;-71
2021/09/15 03:28:21;;;;;;;20.30;11.75;;;;;;;;;;4990010;28;20031;-72
2021/09/15 03:30:46;;;;;;;26.27;13.32;;;;;;;;;;4989759;28;20208;-71
2021/09/15 03:33:12;;;;;;;23.73;13.98;;;;;;;;;;4990045;28;20038;-71
2021/09/15 03:35:37;;;;;;;21.92;12.80;;;;;;;;;;4974397;28;20402;-72
2021/09/15 03:38:03;;;;;;;20.85;12.38;;;;;;;;;;4993720;28;20494;-72
2021/09/15 03:40:28;;;;;;;24.30;13.85;;;;;;;;;;4993760;28;20039;-73
2021/09/15 03:42:55;;;;;;;17.88;12.38;;;;;;;;;;4993654;28;20057;-72
2021/09/15 03:45:21;;;;;;;18.08;12.95;;;;;;;;;;4992177;28;20034;-72
2021/09/15 03:47:46;;;;;;;21.75;13.68;;;;;;;;;;4993876;28;20422;-72
2021/09/15 03:50:12;;;;;;;19.33;12.57;;;;;;;;;;4976196;28;20092;-72
2021/09/15 03:52:37;;;;;;;18.65;12.93;;;;;;;;;;4992350;28;20030;-70
2021/09/15 03:55:03;;;;;;;19.45;13.20;;;;;;;;;;4993877;28;20034;-72
2021/09/15 03:57:29;;;;;;;18.27;12.73;;;;;;;;;;4993548;28;20153;-71
2021/09/15 03:59:55;;;;;;;20.73;13.23;;;;;;;;;;4994450;28;20034;-71
2021/09/15 04:02:20;;;;;;;23.13;13.63;;;;;;;;;;4993734;28;20037;-72
2021/09/15 04:04:46;;;;;;;21.25;12.77;;;;;;;;;;4992167;28;20530;-72
2021/09/15 04:07:11;;;;;;;14.98;11.60;;;;;;;;;;4993786;28;20018;-72
2021/09/15 04:09:37;;;;;;;16.98;10.90;;;;;;;;;;4976157;28;20034;-72
2021/09/15 04:12:02;;;;;;;20.27;12.35;;;;;;;;;;4976027;28;20037;-72
2021/09/15 04:14:28;;;;;;;21.70;12.57;;;;;;;;;;4993074;28;20108;-72
2021/09/15 04:16:53;;;;;;;18.63;13.52;;;;;;;;;;4975007;28;20055;-72
2021/09/15 04:19:21;;;;;;;19.02;11.77;;;;;;;;;;4993113;28;20030;-73
2021/09/15 04:21:46;;;;;;;18.63;13.07;;;;;;;;;;4975661;28;20049;-72
2021/09/15 04:32:23;;;;;;;19.98;12.95;;;;;;;;;;4992783;28;20101;-72
2021/09/15 04:34:49;;;;;;;22.48;14.00;;;;;;;;;;4991541;28;20463;-72
2021/09/15 04:37:14;;;;;;;17.45;13.23;;;;;;;;;;4992559;28;20112;-72
2021/09/15 04:39:40;;;;;;;23.10;13.00;;;;;;;;;;4974760;28;20041;-72
2021/09/15 04:42:05;;;;;;;22.00;14.13;;;;;;;;;;4992504;28;20039;-71
2021/09/15 04:44:31;;;;;;;23.13;13.38;;;;;;;;;;4992322;28;20026;-72
2021/09/15 04:46:56;;;;;;;20.30;13.32;;;;;;;;;;4991455;28;20022;-70
2021/09/15 04:49:21;;;;;;;20.38;12.80;;;;;;;;;;4992420;28;20113;-72
2021/09/15 04:51:47;;;;;;;19.88;13.35;;;;;;;;;;4992391;28;20022;-72
2021/09/15 04:54:12;;;;;;;23.63;13.73;;;;;;;;;;4975388;28;20035;-72
2021/09/15 04:56:38;;;;;;;26.05;14.63;;;;;;;;;;4969687;28;20026;-74
2021/09/15 04:59:03;;;;;;;18.63;13.13;;;;;;;;;;4979895;28;20031;-71
2021/09/15 05:01:29;;;;;;;56.17;16.08;;;;;;;;;;4954082;28;20070;-71
2021/09/15 05:03:55;;;;;;;26.50;13.75;;;;;;;;;;4974143;28;20041;-71
2021/09/15 05:06:20;;;;;;;18.58;12.80;;;;;;;;;;4971988;28;20033;-74
2021/09/15 05:08:45;;;;;;;19.98;13.80;;;;;;;;;;4947388;28;20038;-73
2021/09/15 05:11:11;;;;;;;21.20;13.15;;;;;;;;;;4966652;28;20035;-72
2021/09/15 05:13:36;;;;;;;23.58;14.80;;;;;;;;;;4953298;28;20063;-72
2021/09/15 05:16:02;;;;;;;21.98;12.77;;;;;;;;;;4960455;28;20034;-71
2021/09/15 05:18:30;;;;;;;18.15;12.77;;;;;;;;;;4972082;28;20451;-72
2021/09/15 05:20:55;;;;;;;22.08;13.02;;;;;;;;;;4954834;28;20035;-72
2021/09/15 05:23:21;;;;;;;20.98;13.05;;;;;;;;;;4971341;28;20030;-73
2021/09/15 05:25:47;;;;;;;18.38;12.95;;;;;;;;;;4953814;28;20159;-72
2021/09/15 05:28:12;;;;;;;17.73;12.13;;;;;;;;;;4967746;28;20077;-71
2021/09/15 05:30:38;;;;;;;23.27;13.00;;;;;;;;;;4940204;28;20489;-71
2021/09/15 05:33:03;;;;;;;26.10;14.88;;;;;;;;;;4953039;28;20081;-72
2021/09/15 05:35:29;;;;;;;25.88;13.32;;;;;;;;;;4953138;28;20031;-72
2021/09/15 05:37:55;;;;;;;20.88;13.18;;;;;;;;;;4970759;28;20037;-72
2021/09/15 05:40:20;;;;;;;21.58;13.20;;;;;;;;;;4970210;28;20534;-73
2021/09/15 05:42:46;;;;;;;27.20;13.93;;;;;;;;;;4970550;28;20372;-71
2021/09/15 05:45:11;;;;;;;18.05;12.52;;;;;;;;;;4971424;28;20037;-71
2021/09/15 05:47:37;;;;;;;34.33;15.35;;;;;;;;;;4969765;28;20033;-75
2021/09/15 05:50:03;;;;;;;25.60;13.60;;;;;;;;;;4969363;28;20035;-73
2021/09/15 05:52:28;;;;;;;21.75;13.70;;;;;;;;;;4981336;28;20471;-71
2021/09/15 05:54:54;;;;;;;21.50;14.63;;;;;;;;;;4951844;28;20042;-72
2021/09/15 05:57:19;;;;;;;22.92;14.82;;;;;;;;;;4970579;28;20034;-72
2021/09/15 05:59:45;;;;;;;27.05;15.38;;;;;;;;;;4970822;28;20062;-71
2021/09/15 06:02:11;;;;;;;30.75;14.18;;;;;;;;;;4970178;28;20050;-71
2021/09/15 06:04:36;;;;;;;40.85;19.45;;;;;;;;;;4971058;28;20045;-71
2021/09/15 06:07:03;;;;;;;28.27;14.15;;;;;;;;;;4970432;28;20486;-72
2021/09/15 06:09:29;;;;;;;21.75;14.07;;;;;;;;;;4969718;28;20454;-71
2021/09/15 06:11:54;;;;;;;26.77;13.48;;;;;;;;;;4965251;28;20035;-72
2021/09/15 06:14:19;;;;;;;32.83;14.15;;;;;;;;;;4969457;28;20103;-72
2021/09/15 06:16:45;;;;;;;24.90;14.43;;;;;;;;;;4970315;28;20030;-70
2021/09/15 06:19:11;;;;;;;24.00;14.35;;;;;;;;;;4971248;28;20070;-71
2021/09/15 06:21:37;;;;;;;25.00;16.13;;;;;;;;;;4971467;28;20026;-71
2021/09/15 06:24:02;;;;;;;24.15;15.65;;;;;;;;;;4970782;28;20743;-72
2021/09/15 06:26:28;;;;;;;31.38;16.10;;;;;;;;;;4970773;28;20096;-72
2021/09/15 06:28:55;;;;;;;21.60;15.05;;;;;;;;;;4972288;28;20037;-72
2021/09/15 06:31:21;;;;;;;24.65;14.70;;;;;;;;;;4969374;28;20038;-73
2021/09/15 06:33:48;;;;;;;26.08;15.48;;;;;;;;;;4972616;28;20026;-73
2021/09/15 06:36:19;;;;;;;25.85;15.52;;;;;;;;;;4966143;28;20074;-75
2021/09/15 06:38:46;;;;;;;26.23;15.05;;;;;;;;;;4953077;28;20033;-71
2021/09/15 06:41:12;;;;;;;23.23;13.50;;;;;;;;;;4965307;28;20398;-71
2021/09/15 06:43:40;;;;;;;23.33;13.50;;;;;;;;;;4959662;28;20030;-73
2021/09/15 06:46:06;;;;;;;23.35;13.55;;;;;;;;;;4970432;28;20023;-72
2021/09/15 06:48:33;;;;;;;22.25;14.70;;;;;;;;;;4933943;28;20505;-73
2021/09/15 06:51:03;;;;;;;32.42;14.27;;;;;;;;;;4948467;28;20034;-73
2021/09/15 06:53:30;;;;;;;21.92;14.30;;;;;;;;;;4974592;28;20105;-73
2021/09/15 06:55:56;;;;;;;16.85;12.98;;;;;;;;;;4958178;28;20030;-72
2021/09/15 06:58:21;;;;;;;23.05;15.13;;;;;;;;;;4940342;28;20744;-72
2021/09/15 07:00:47;;;;;;;22.25;13.38;;;;;;;;;;4962465;28;20086;-73
2021/09/15 07:03:13;;;;;;;26.42;13.60;;;;;;;;;;4965241;28;20050;-71
2021/09/15 07:05:39;;;;;;;23.65;12.35;;;;;;;;;;4967474;28;20106;-72
2021/09/15 07:08:07;;;;;;;19.08;11.48;;;;;;;;;;4964820;28;20117;-76
2021/09/15 07:10:36;;;;;;;24.58;13.82;;;;;;;;;;4957057;28;20039;-72
2021/09/15 07:13:02;;;;;;;19.50;11.82;;;;;;;;;;4949099;28;20058;-73
2021/09/15 07:15:28;;;;;;;24.90;11.50;;;;;;;;;;4953494;28;20034;-73
2021/09/15 07:17:54;;;;;;;18.05;12.50;;;;;;;;;;4953308;28;20113;-73
2021/09/15 07:20:20;;;;;;;15.57;11.73;;;;;;;;;;4957027;28;20117;-73
2021/09/15 07:22:47;;;;;;;18.48;11.43;;;;;;;;;;4962657;28;20066;-72
2021/09/15 07:25:13;;;;;;;17.35;11.98;;;;;;;;;;4971111;28;20077;-72
2021/09/15 07:27:39;;;;;;;17.67;11.88;;;;;;;;;;4951640;28;20030;-72
2021/09/15 07:30:06;;;;;;;14.45;10.50;;;;;;;;;;4973001;28;20058;-72
2021/09/15 07:32:31;;;;;;;17.90;11.57;;;;;;;;;;4951972;28;20035;-71
2021/09/15 07:34:57;;;;;;;15.43;11.13;;;;;;;;;;4967668;28;20030;-74
2021/09/15 07:37:23;;;;;;;20.10;12.30;;;;;;;;;;4952484;28;20054;-72
2021/09/15 07:39:53;;;;;;;19.70;11.70;;;;;;;;;;4951487;28;20051;-73
2021/09/15 07:42:19;;;;;;;15.25;11.20;;;;;;;;;;4967413;28;20074;-73
2021/09/15 07:44:44;;;;;;;23.35;11.48;;;;;;;;;;4968054;28;20068;-73
2021/09/15 07:47:15;;;;;;;20.15;11.40;;;;;;;;;;4950775;28;20026;-73
2021/09/15 07:49:45;;;;;;;16.95;12.35;;;;;;;;;;4951819;28;20031;-74
2021/09/15 07:52:11;;;;;;;18.23;10.95;;;;;;;;;;4952694;28;20040;-74
2021/09/15 07:54:36;;;;;;;24.08;11.75;;;;;;;;;;4970984;28;20054;-73
2021/09/15 07:57:03;;;;;;;20.08;10.32;;;;;;;;;;4971828;28;20073;-74
2021/09/15 07:59:28;;;;;;;14.10;11.02;;;;;;;;;;4964568;28;20166;-74
2021/09/15 08:01:54;;;;;;;17.55;11.32;;;;;;;;;;4954279;28;20034;-75
2021/09/15 08:04:19;;;;;;;20.30;11.27;;;;;;;;;;4950867;28;20089;-73
2021/09/15 08:06:45;;;;;;;28.98;12.52;;;;;;;;;;4964638;28;20766;-77
2021/09/15 08:09:12;;;;;;;22.60;11.65;;;;;;;;;;4952565;28;21118;-73
2021/09/15 08:11:39;;;;;;;18.27;11.38;;;;;;;;;;4948557;28;20148;-73
2021/09/15 08:14:05;;;;;;;20.98;11.88;;;;;;;;;;4970376;28;20855;-73
2021/09/15 08:16:30;;;;;;;20.13;11.55;;;;;;;;;;4931275;28;20063;-73
2021/09/15 08:19:02;;;;;;;17.90;10.50;;;;;;;;;;4968663;28;20570;-76
2021/09/15 08:21:29;;;;;;;17.92;11.32;;;;;;;;;;4966763;28;20051;-74
2021/09/15 08:23:55;;;;;;;26.42;13.75;;;;;;;;;;4964850;28;20120;-72
2021/09/15 08:26:21;;;;;;;19.65;11.18;;;;;;;;;;4912049;28;20034;-73
2021/09/15 08:28:47;;;;;;;18.55;11.55;;;;;;;;;;4949191;28;20031;-74
2021/09/15 08:31:12;;;;;;;16.80;10.40;;;;;;;;;;4944291;28;20059;-76
2021/09/15 08:33:39;;;;;;;16.95;11.02;;;;;;;;;;4960630;28;20032;-74
2021/09/15 08:36:04;;;;;;;17.25;9.73;;;;;;;;;;4950723;28;20142;-74
2021/09/15 08:38:31;;;;;;;20.98;11.52;;;;;;;;;;4952595;28;20551;-72
2021/09/15 08:40:57;;;;;;;17.08;10.20;;;;;;;;;;4970541;28;20045;-73
2021/09/15 08:43:23;;;;;;;18.98;10.35;;;;;;;;;;4933228;28;20031;-73
2021/09/15 08:45:49;;;;;;;16.10;10.13;;;;;;;;;;4940435;28;20077;-73
2021/09/15 08:48:21;;;;;;;17.77;10.07;;;;;;;;;;4954638;28;20482;-74
2021/09/15 08:50:49;;;;;;;23.30;14.30;;;;;;;;;;4951616;28;20073;-76
2021/09/15 08:53:16;;;;;;;14.65;10.57;;;;;;;;;;4947528;28;20062;-75
2021/09/15 08:55:46;;;;;;;19.30;10.25;;;;;;;;;;4963412;28;20039;-75
2021/09/15 08:58:14;;;;;;;16.85;11.15;;;;;;;;;;4948574;28;20039;-74
2021/09/15 09:00:45;;;;;;;25.77;11.65;;;;;;;;;;4962076;28;20031;-74
2021/09/15 09:03:11;;;;;;;20.60;10.98;;;;;;;;;;4969766;28;20498;-71
2021/09/15 09:05:37;;;;;;;17.10;10.88;;;;;;;;;;4965041;28;20031;-73
2021/09/15 09:08:15;;;;;;;26.98;12.93;;;;;;;;;;4948307;29;20027;-72
2021/09/15 09:10:51;;;;;;;16.08;11.15;;;;;;;;;;4971725;28;20033;-74
2021/09/15 09:13:18;;;;;;;22.98;11.07;;;;;;;;;;4972688;28;20077;-74
2021/09/15 09:15:44;;;;;;;17.08;10.63;;;;;;;;;;4972328;28;20038;-72
2021/09/15 09:18:09;;;;;;;15.52;11.00;;;;;;;;;;4966591;28;20114;-74
2021/09/15 09:20:36;;;;;;;20.42;10.95;;;;;;;;;;4959938;28;20213;-74
2021/09/15 09:23:13;;;;;;;16.15;10.63;;;;;;;;;;4955446;28;20030;-72
2021/09/15 09:26:07;;;;;;;13.88;9.70;;;;;;;;;;4956570;28;20042;-73
2021/09/15 09:28:34;;;;;;;26.52;11.27;;;;;;;;;;4959921;28;20046;-73
2021/09/15 09:31:03;;;;;;;15.95;11.25;;;;;;;;;;4945051;28;20046;-74
2021/09/15 09:33:28;;;;;;;20.73;11.73;;;;;;;;;;4961281;28;20138;-74
2021/09/15 09:35:58;;;;;;;16.42;10.30;;;;;;;;;;4964103;28;20027;-72
2021/09/15 09:38:31;;;;;;;20.52;10.35;;;;;;;;;;4947124;28;20043;-72
2021/09/15 09:41:16;;;;;;;15.40;10.48;;;;;;;;;;4958991;28;20397;-72
2021/09/15 09:43:50;;;;;;;14.57;11.07;;;;;;;;;;4971831;28;20046;-75
2021/09/15 09:46:21;;;;;;;20.42;11.38;;;;;;;;;;4966977;28;20403;-73
2021/09/15 09:48:48;;;;;;;23.05;10.55;;;;;;;;;;4968615;28;20094;-72
2021/09/15 09:51:36;;;;;;;17.65;11.05;;;;;;;;;;4967738;28;20077;-73
2021/09/15 09:54:24;;;;;;;19.75;10.38;;;;;;;;;;4945921;28;20126;-72
2021/09/15 09:56:52;;;;;;;15.80;9.75;;;;;;;;;;4945261;28;20031;-76
2021/09/15 09:59:25;;;;;;;14.90;10.35;;;;;;;;;;4962347;28;20072;-73
2021/09/15 10:01:56;;;;;;;19.17;11.50;;;;;;;;;;4958167;28;20059;-73
2021/09/15 10:04:22;;;;;;;20.02;10.60;;;;;;;;;;4924356;28;20067;-74
2021/09/15 10:06:48;;;;;;;18.13;11.45;;;;;;;;;;4956075;28;20372;-75
2021/09/15 10:09:15;;;;;;;18.08;10.40;;;;;;;;;;4962103;28;20030;-75
2021/09/15 10:11:43;;;;;;;14.40;9.70;;;;;;;;;;4945528;28;20950;-72
2021/09/15 10:14:17;;;;;;;14.98;10.30;;;;;;;;;;4951469;28;20027;-73
2021/09/15 10:16:48;;;;;;;14.93;10.85;;;;;;;;;;4936469;28;20039;-73
2021/09/15 10:19:17;;;;;;;29.85;9.77;;;;;;;;;;4962085;28;20019;-75
2021/09/15 10:21:43;;;;;;;27.75;17.02;;;;;;;;;;4959686;28;20034;-74
2021/09/15 10:24:09;;;;;;;20.05;9.88;;;;;;;;;;4948316;28;20038;-72
2021/09/15 10:26:40;;;;;;;12.85;8.90;;;;;;;;;;4961776;28;20038;-73
2021/09/15 10:29:23;;;;;;;27.10;13.77;;;;;;;;;;4950863;28;20049;-74
2021/09/15 10:31:56;;;;;;;19.80;9.93;;;;;;;;;;4962665;28;20561;-76
2021/09/15 10:34:40;;;;;;;15.65;11.25;;;;;;;;;;4961703;28;20038;-75
2021/09/15 10:37:30;;;;;;;14.48;9.65;;;;;;;;;;4967728;28;20038;-72
2021/09/15 10:40:03;;;;;;;11.52;9.30;;;;;;;;;;4946740;28;20564;-76
2021/09/15 10:42:38;;;;;;;17.27;9.63;;;;;;;;;;4955282;28;20046;-76
2021/09/15 10:45:13;;;;;;;14.05;9.65;;;;;;;;;;4963951;28;20568;-73
2021/09/15 10:47:43;;;;;;;12.13;8.32;;;;;;;;;;4959183;28;20050;-72
2021/09/15 10:50:10;;;;;;;16.85;9.73;;;;;;;;;;4958630;28;20026;-74
2021/09/15 10:52:40;;;;;;;14.65;9.57;;;;;;;;;;4947254;28;20038;-74
2021/09/15 10:55:19;;;;;;;17.23;10.48;;;;;;;;;;4962833;28;20101;-72
2021/09/15 10:57:45;;;;;;;19.50;9.63;;;;;;;;;;4937862;28;20171;-72
2021/09/15 11:00:16;;;;;;;15.82;9.18;;;;;;;;;;4960354;28;20042;-72
2021/09/15 11:02:44;;;;;;;15.95;8.75;;;;;;;;;;4964483;28;20539;-73
2021/09/15 11:05:28;;;;;;;13.45;9.55;;;;;;;;;;4963277;28;20264;-72
2021/09/15 11:07:57;;;;;;;17.17;9.45;;;;;;;;;;4962038;28;20027;-74
2021/09/15 11:10:40;;;;;;;16.52;9.65;;;;;;;;;;4959046;28;20109;-74
2021/09/15 11:13:14;;;;;;;14.48;9.48;;;;;;;;;;4947635;28;20050;-73
2021/09/15 11:15:42;;;;;;;14.25;8.88;;;;;;;;;;4942635;28;20058;-71
2021/09/15 11:18:15;;;;;;;15.13;9.63;;;;;;;;;;4957360;28;20033;-73
2021/09/15 11:20:41;;;;;;;12.00;9.57;;;;;;;;;;4939904;28;20365;-72
2021/09/15 11:23:10;;;;;;;14.55;9.05;;;;;;;;;;4959770;28;20475;-72
2021/09/15 11:25:37;;;;;;;21.35;10.15;;;;;;;;;;4942773;28;20504;-74
2021/09/15 11:28:11;;;;;;;15.43;9.82;;;;;;;;;;4937831;28;87653;-73
2021/09/15 11:30:40;;;;;;;14.98;10.45;;;;;;;;;;4961910;28;20101;-73
2021/09/15 11:33:09;;;;;;;13.20;9.45;;;;;;;;;;4983892;28;20034;-73
2021/09/15 11:35:37;;;;;;;17.27;10.73;;;;;;;;;;4984562;28;20061;-74
2021/09/15 11:38:06;;;;;;;15.35;8.88;;;;;;;;;;4976534;28;20038;-74
2021/09/15 11:40:34;;;;;;;16.05;10.00;;;;;;;;;;4974720;28;20031;-73
2021/09/15 11:43:05;;;;;;;14.30;9.77;;;;;;;;;;4956046;28;20030;-72
2021/09/15 11:45:31;;;;;;;12.95;9.10;;;;;;;;;;4979929;28;20045;-73
2021/09/15 11:47:58;;;;;;;18.35;8.73;;;;;;;;;;4955223;28;20034;-74
2021/09/15 11:50:28;;;;;;;22.08;9.05;;;;;;;;;;4979455;28;20042;-76
2021/09/15 11:53:03;;;;;;;10.98;8.95;;;;;;;;;;4973780;28;20045;-74
2021/09/15 11:55:30;;;;;;;17.67;9.30;;;;;;;;;;4975870;28;20128;-72
2021/09/15 11:58:02;;;;;;;24.45;8.98;;;;;;;;;;4988688;28;20039;-74
2021/09/15 12:00:32;;;;;;;15.00;8.95;;;;;;;;;;4972714;28;20070;-77
2021/09/15 12:03:06;;;;;;;18.50;8.73;;;;;;;;;;4966637;28;20287;-73
2021/09/15 12:05:32;;;;;;;10.55;8.75;;;;;;;;;;4970692;28;20089;-72
2021/09/15 12:07:58;;;;;;;19.13;9.23;;;;;;;;;;4969139;28;20034;-73
2021/09/15 12:10:25;;;;;;;11.40;8.57;;;;;;;;;;4985205;28;20085;-73
2021/09/15 12:12:51;;;;;;;13.82;8.95;;;;;;;;;;4981027;28;20211;-73
2021/09/15 12:15:17;;;;;;;13.18;9.20;;;;;;;;;;4951061;28;20029;-73
2021/09/15 12:17:54;;;;;;;13.80;8.95;;;;;;;;;;4993944;28;20073;-73
2021/09/15 12:20:41;;;;;;;25.33;10.90;;;;;;;;;;4984315;28;20025;-73
2021/09/15 12:23:07;;;;;;;11.93;9.25;;;;;;;;;;4964192;28;20331;-73
2021/09/15 12:25:33;;;;;;;11.45;9.35;;;;;;;;;;4988501;28;20160;-73
2021/09/15 12:27:59;;;;;;;14.85;10.07;;;;;;;;;;4978130;28;20025;-74
2021/09/15 12:30:25;;;;;;;16.55;10.52;;;;;;;;;;4985225;28;20123;-73
2021/09/15 12:32:59;;;;;;;18.38;11.38;;;;;;;;;;4976811;28;20050;-73
2021/09/15 12:35:33;;;;;;;17.90;9.75;;;;;;;;;;4986655;28;20022;-73
2021/09/15 12:38:04;;;;;;;14.88;9.48;;;;;;;;;;4963066;28;20176;-74
2021/09/15 12:40:30;;;;;;;;;;;;;;;;;;4967004;28;20034;-72
2021/09/15 12:43:05;;;;;;;12.48;9.15;;;;;;;;;;4980175;28;19925;-73
2021/09/15 12:45:34;;;;;;;20.08;10.35;;;;;;;;;;4978628;28;20022;-73
2021/09/15 12:48:00;;;;;;;15.93;10.55;;;;;;;;;;4963739;28;20467;-73
2021/09/15 12:50:30;;;;;;;13.60;10.13;;;;;;;;;;4968580;28;20250;-73
2021/09/15 12:53:09;;;;;;;16.05;9.45;;;;;;;;;;4966180;28;20026;-72
2021/09/15 12:55:50;;;;;;;16.15;9.77;;;;;;;;;;4981289;28;20054;-73
2021/09/15 12:58:26;;;;;;;14.95;9.85;;;;;;;;;;4969966;28;20453;-73
2021/09/15 13:00:52;;;;;;;15.40;9.93;;;;;;;;;;4982578;28;20034;-72
2021/09/15 13:03:17;;;;;;;14.65;9.48;;;;;;;;;;4989716;28;20480;-74
2021/09/15 13:05:49;;;;;;;19.13;11.60;;;;;;;;;;4988438;28;20049;-75
2021/09/15 13:08:24;;;;;;;11.95;8.88;;;;;;;;;;4983580;28;20022;-75
2021/09/15 13:10:51;;;;;;;18.17;9.20;;;;;;;;;;4982949;28;20129;-72
2021/09/15 13:13:22;;;;;;;14.63;8.68;;;;;;;;;;4956280;28;20122;-73
2021/09/15 13:15:50;;;;;;;19.20;10.80;;;;;;;;;;4989990;28;20803;-74
2021/09/15 13:18:16;;;;;;;14.75;9.88;;;;;;;;;;4973943;28;20065;-74
2021/09/15 13:20:43;;;;;;;17.48;12.60;;;;;;;;;;4989379;28;20089;-73
2021/09/15 13:23:10;;;;;;;14.75;9.60;;;;;;;;;;4988140;28;20157;-73
2021/09/15 13:25:36;;;;;;;24.80;11.45;;;;;;;;;;4982649;28;20045;-77
2021/09/15 13:28:05;;;;;;;20.45;11.20;;;;;;;;;;4970735;28;20254;-74
2021/09/15 13:30:30;;;;;;;13.38;10.80;;;;;;;;;;4969395;28;20046;-73
2021/09/15 13:32:56;;;;;;;38.58;16.48;;;;;;;;;;4964488;28;20503;-74
2021/09/15 13:35:22;;;;;;;17.63;10.77;;;;;;;;;;4983574;28;20089;-72
2021/09/15 13:37:48;;;;;;;17.92;8.85;;;;;;;;;;4985210;28;20248;-74
2021/09/15 13:40:15;;;;;;;19.33;10.27;;;;;;;;;;4970311;28;20125;-73
2021/09/15 13:42:41;;;;;;;16.10;9.45;;;;;;;;;;4965865;28;20030;-73
2021/09/15 13:45:10;;;;;;;24.15;11.48;;;;;;;;;;4967938;28;20077;-74
2021/09/15 13:47:36;;;;;;;31.23;11.48;;;;;;;;;;4974019;28;20145;-73
2021/09/15 13:50:02;;;;;;;13.65;9.30;;;;;;;;;;4969808;28;20156;-73
2021/09/15 13:52:29;;;;;;;16.52;11.32;;;;;;;;;;4987685;28;20071;-73
2021/09/15 13:54:55;;;;;;;15.02;9.55;;;;;;;;;;4969957;28;20030;-75
2021/09/15 13:57:20;;;;;;;17.83;10.82;;;;;;;;;;4970828;28;20398;-74
2021/09/15 13:59:49;;;;;;;19.80;9.15;;;;;;;;;;4973276;28;20561;-73
2021/09/15 14:02:15;;;;;;;16.00;9.07;;;;;;;;;;4978352;28;20479;-73
2021/09/15 14:04:41;;;;;;;16.52;9.40;;;;;;;;;;4987392;28;20094;-72
2021/09/15 14:07:07;;;;;;;21.50;9.43;;;;;;;;;;4987436;28;20614;-73
2021/09/15 14:09:32;;;;;;;21.13;8.93;;;;;;;;;;4989697;28;20777;-71
2021/09/15 14:11:58;;;;;;;14.63;8.93;;;;;;;;;;4953785;28;20041;-72
2021/09/15 14:14:26;;;;;;;15.48;8.63;;;;;;;;;;4986982;28;20371;-73
2021/09/15 14:16:51;;;;;;;21.70;10.00;;;;;;;;;;4986840;28;20030;-75
2021/09/15 14:19:17;;;;;;;25.80;9.27;;;;;;;;;;4983741;28;20100;-73
2021/09/15 14:21:42;;;;;;;19.75;9.07;;;;;;;;;;4993993;28;20053;-72
2021/09/15 14:24:09;;;;;;;26.23;9.45;;;;;;;;;;4981577;28;20092;-74
2021/09/15 14:26:35;;;;;;;21.25;9.20;;;;;;;;;;4967857;28;20411;-72
2021/09/15 14:29:01;;;;;;;14.25;8.88;;;;;;;;;;4989990;28;20033;-71
2021/09/15 14:31:26;;;;;;;21.90;9.95;;;;;;;;;;4973537;28;20061;-75